createdAt,value
2023-01-06T00:01:08.241Z,96.81
2023-01-06T00:03:35.423Z,96.32
2023-01-06T00:06:03.994Z,96.49
2023-01-06T00:08:30.505Z,96.93
2023-01-06T00:10:57.069Z,97.24
2023-01-06T00:13:23.713Z,97.33
2023-01-06T00:15:51.157Z,97.28
2023-01-06T00:18:17.806Z,97.45
2023-01-06T00:20:44.356Z,97.71
2023-01-06T00:23:12.067Z,97.51
2023-01-06T00:25:39.040Z,97.33
2023-01-06T00:28:05.719Z,97.24
2023-01-06T00:30:32.483Z,97.11
2023-01-06T00:32:59.064Z,97.16
2023-01-06T00:35:25.687Z,97.00
2023-01-06T00:37:52.263Z,97.00
2023-01-06T00:40:20.334Z,96.90
2023-01-06T00:42:46.945Z,97.14
2023-01-06T00:45:13.620Z,97.14
2023-01-06T00:47:40.557Z,96.90
2023-01-06T00:50:07.567Z,96.71
2023-01-06T00:52:34.416Z,96.59
2023-01-06T00:55:01.119Z,96.61
2023-01-06T00:57:27.717Z,96.21
2023-01-06T00:59:55.705Z,96.19
2023-01-06T01:02:22.429Z,96.10
2023-01-06T01:04:49.387Z,96.48
2023-01-06T01:07:16.554Z,96.84
2023-01-06T01:09:43.143Z,97.08
2023-01-06T01:12:13.850Z,97.22
2023-01-06T01:14:47.900Z,97.59
2023-01-06T01:17:22.388Z,97.66
2023-01-06T01:19:51.233Z,97.43
2023-01-06T01:22:18.123Z,97.27
2023-01-06T01:24:44.715Z,97.14
2023-01-06T01:27:11.378Z,97.09
2023-01-06T01:29:38.044Z,97.18
2023-01-06T01:32:07.274Z,97.00
2023-01-06T01:34:34.441Z,97.19
2023-01-06T01:37:01.845Z,97.05
2023-01-06T01:39:30.065Z,96.97
2023-01-06T01:41:57.976Z,97.28
2023-01-06T01:45:00.973Z,97.44
2023-01-06T01:47:49.956Z,97.42
2023-01-06T01:50:28.888Z,97.40
2023-01-06T01:53:20.497Z,97.32
2023-01-06T01:55:51.139Z,97.35
2023-01-06T01:58:23.684Z,97.51
2023-01-06T02:00:51.315Z,97.55
2023-01-06T02:03:20.033Z,97.95
2023-01-06T02:05:57.048Z,98.18
2023-01-06T02:08:37.560Z,98.42
2023-01-06T02:11:05.413Z,98.09
2023-01-06T02:13:33.770Z,98.00
2023-01-06T02:16:26.956Z,97.98
2023-01-06T02:18:59.013Z,98.19
2023-01-06T02:21:45.847Z,98.28
2023-01-06T02:24:18.418Z,98.31
2023-01-06T02:27:16.916Z,99.08
2023-01-06T02:30:19.200Z,99.09
2023-01-06T02:33:16.865Z,98.60
2023-01-06T02:36:07.369Z,98.82
2023-01-06T02:38:51.485Z,98.91
2023-01-06T02:41:42.944Z,98.94
2023-01-06T02:44:12.242Z,98.88
2023-01-06T02:46:57.756Z,99.00
2023-01-06T02:50:13.966Z,99.59
2023-01-06T02:52:53.645Z,99.89
2023-01-06T02:55:48.779Z,99.98
2023-01-06T02:58:31.172Z,99.98
2023-01-06T03:01:10.076Z,99.98
2023-01-06T03:03:41.613Z,100.00
2023-01-06T03:06:12.837Z,100.00
2023-01-06T03:08:40.827Z,100.00
2023-01-06T03:11:07.417Z,100.00
2023-01-06T03:13:41.116Z,100.00
2023-01-06T03:16:08.528Z,100.00
2023-01-06T03:18:36.559Z,100.00
2023-01-06T03:21:13.287Z,100.00
2023-01-06T03:23:42.080Z,100.00
2023-01-06T03:26:09.645Z,100.00
2023-01-06T03:28:37.151Z,100.00
2023-01-06T03:31:16.722Z,100.00
2023-01-06T03:34:01.129Z,100.00
2023-01-06T03:36:48.791Z,100.00
2023-01-06T03:39:22.366Z,100.00
2023-01-06T03:42:36.839Z,100.00
2023-01-06T03:45:13.803Z,100.00
2023-01-06T03:47:56.167Z,100.00
2023-01-06T03:50:30.797Z,100.00
2023-01-06T03:53:43.642Z,100.00
2023-01-06T03:56:30.145Z,100.00
2023-01-06T03:59:02.731Z,100.00
2023-01-06T04:01:31.815Z,100.00
2023-01-06T04:04:00.730Z,100.00
2023-01-06T04:06:27.881Z,100.00
2023-01-06T04:08:54.717Z,100.00
2023-01-06T04:11:39.942Z,100.00
2023-01-06T04:14:07.974Z,100.00
2023-01-06T04:16:34.768Z,100.00
2023-01-06T04:19:03.199Z,100.00
2023-01-06T04:21:30.277Z,100.00
2023-01-06T04:23:57.366Z,100.00
2023-01-06T04:26:23.970Z,100.00
2023-01-06T04:28:51.498Z,100.00
2023-01-06T04:31:18.671Z,100.00
2023-01-06T04:33:45.431Z,100.00
2023-01-06T04:36:12.843Z,100.00
2023-01-06T04:38:41.313Z,100.00
2023-01-06T04:41:07.996Z,100.00
2023-01-06T04:43:34.553Z,100.00
2023-01-06T04:46:01.346Z,100.00
2023-01-06T04:48:27.871Z,100.00
2023-01-06T04:51:06.235Z,100.00
2023-01-06T04:53:38.353Z,100.00
2023-01-06T04:56:07.854Z,100.00
2023-01-06T04:58:35.300Z,100.00
2023-01-06T05:01:10.686Z,100.00
2023-01-06T05:03:38.228Z,100.00
2023-01-06T05:06:10.604Z,100.00
2023-01-06T05:08:39.255Z,100.00
2023-01-06T05:11:09.338Z,100.00
2023-01-06T05:13:36.438Z,100.00
2023-01-06T05:16:12.352Z,100.00
2023-01-06T05:18:39.206Z,100.00
2023-01-06T05:21:05.945Z,100.00
2023-01-06T05:23:32.800Z,100.00
2023-01-06T05:25:59.310Z,100.00
2023-01-06T05:28:25.946Z,100.00
2023-01-06T05:30:53.359Z,100.00
2023-01-06T05:33:19.857Z,100.00
2023-01-06T05:35:46.524Z,100.00
2023-01-06T05:38:13.034Z,100.00
2023-01-06T05:40:39.578Z,100.00
2023-01-06T05:43:06.148Z,100.00
2023-01-06T05:45:32.771Z,100.00
2023-01-06T05:48:01.690Z,100.00
2023-01-06T05:50:28.380Z,100.00
2023-01-06T05:52:54.914Z,100.00
2023-01-06T05:55:21.460Z,100.00
2023-01-06T05:57:48.112Z,100.00
2023-01-06T06:00:14.887Z,100.00
2023-01-06T06:02:41.505Z,100.00
2023-01-06T06:05:08.679Z,100.00
2023-01-06T06:07:35.099Z,100.00
2023-01-06T06:10:02.227Z,100.00
2023-01-06T06:12:28.935Z,100.00
2023-01-06T06:14:55.790Z,100.00
2023-01-06T06:17:23.543Z,100.00
2023-01-06T06:19:50.203Z,100.00
2023-01-06T06:22:16.931Z,100.00
2023-01-06T06:24:43.619Z,100.00
2023-01-06T06:27:10.210Z,99.99
2023-01-06T06:29:38.368Z,99.98
2023-01-06T06:32:05.288Z,100.00
2023-01-06T06:34:31.766Z,100.00
2023-01-06T06:36:58.244Z,100.00
2023-01-06T06:39:24.761Z,100.00
2023-01-06T06:41:51.262Z,100.00
2023-01-06T06:44:17.875Z,100.00
2023-01-06T06:46:45.931Z,100.00
2023-01-06T06:49:12.489Z,100.00
2023-01-06T06:51:40.303Z,100.00
2023-01-06T06:54:06.827Z,100.00
2023-01-06T06:56:33.293Z,100.00
2023-01-06T06:59:00.237Z,100.00
2023-01-06T07:01:27.549Z,100.00
2023-01-06T07:03:54.122Z,100.00
2023-01-06T07:06:23.455Z,100.00
2023-01-06T07:08:52.353Z,100.00
2023-01-06T07:11:20.097Z,100.00
2023-01-06T07:13:47.151Z,100.00
2023-01-06T07:16:15.928Z,100.00
2023-01-06T07:18:42.440Z,100.00
2023-01-06T07:21:09.183Z,100.00
2023-01-06T07:23:37.189Z,100.00
2023-01-06T07:26:03.922Z,100.00
2023-01-06T07:28:31.902Z,100.00
2023-01-06T07:30:59.147Z,100.00
2023-01-06T07:33:26.441Z,100.00
2023-01-06T07:35:54.201Z,100.00
2023-01-06T07:38:21.013Z,100.00
2023-01-06T07:40:47.877Z,100.00
2023-01-06T07:43:14.463Z,100.00
2023-01-06T07:45:41.106Z,100.00
2023-01-06T07:48:08.826Z,100.00
2023-01-06T07:50:35.369Z,100.00
2023-01-06T07:53:02.871Z,100.00
2023-01-06T07:55:29.817Z,100.00
2023-01-06T07:57:58.003Z,100.00
2023-01-06T08:00:24.759Z,100.00
2023-01-06T08:02:51.569Z,100.00
2023-01-06T08:05:18.459Z,100.00
2023-01-06T08:07:44.974Z,100.00
2023-01-06T08:10:11.561Z,100.00
2023-01-06T08:12:38.122Z,100.00
2023-01-06T08:15:05.261Z,100.00
2023-01-06T08:17:31.917Z,100.00
2023-01-06T08:19:58.464Z,100.00
2023-01-06T08:22:25.913Z,100.00
2023-01-06T08:24:52.974Z,100.00
2023-01-06T08:27:20.149Z,100.00
2023-01-06T08:29:51.436Z,100.00
2023-01-06T08:32:17.994Z,100.00
2023-01-06T08:34:44.452Z,100.00
2023-01-06T08:47:59.559Z,100.00
2023-01-06T09:01:17.692Z,100.00
2023-01-06T09:04:05.760Z,100.00
2023-01-06T09:06:33.317Z,100.00
2023-01-06T09:09:00.111Z,100.00
2023-01-06T09:11:27.282Z,100.00
2023-01-06T09:13:54.198Z,100.00
2023-01-06T09:16:21.505Z,100.00
2023-01-06T09:18:51.494Z,100.00
2023-01-06T09:21:22.052Z,100.00
2023-01-06T09:23:49.765Z,100.00
2023-01-06T09:26:17.954Z,100.00
2023-01-06T09:28:44.492Z,100.00
2023-01-06T09:31:11.548Z,100.00
2023-01-06T09:33:39.188Z,100.00
2023-01-06T09:36:07.123Z,100.00
2023-01-06T09:38:33.620Z,100.00
2023-01-06T09:41:38.858Z,100.00
2023-01-06T09:44:08.501Z,99.99
2023-01-06T09:46:38.151Z,99.98
2023-01-06T09:49:20.442Z,99.78
2023-01-06T09:51:50.717Z,99.81
2023-01-06T09:54:34.671Z,99.74
2023-01-06T09:57:09.656Z,98.72
2023-01-06T09:59:45.240Z,96.31
2023-01-06T10:02:20.473Z,95.24
2023-01-06T10:04:47.288Z,94.06
2023-01-06T10:07:28.851Z,93.05
2023-01-06T10:10:21.942Z,92.36
2023-01-06T10:13:21.605Z,90.71
2023-01-06T10:16:01.294Z,90.84
2023-01-06T10:18:40.242Z,90.96
2023-01-06T10:21:27.344Z,90.55
2023-01-06T10:23:56.877Z,89.96
2023-01-06T10:26:41.384Z,89.84
2023-01-06T10:29:35.115Z,87.50
2023-01-06T10:32:03.300Z,86.22
2023-01-06T10:34:33.724Z,86.26
2023-01-06T10:37:09.515Z,85.91
2023-01-06T10:39:42.220Z,84.87
2023-01-06T10:42:56.835Z,83.42
2023-01-06T10:45:27.689Z,81.56
2023-01-06T10:47:55.323Z,80.88
2023-01-06T10:50:22.489Z,80.77
2023-01-06T10:52:49.419Z,80.08
2023-01-06T10:55:45.620Z,80.70
2023-01-06T10:58:24.628Z,79.95
2023-01-06T11:00:57.353Z,78.49
2023-01-06T11:03:33.168Z,76.48
2023-01-06T11:06:29.684Z,73.60
2023-01-06T11:08:56.663Z,73.16
2023-01-06T11:11:28.699Z,72.40
2023-01-06T11:14:01.931Z,70.45
2023-01-06T11:16:31.592Z,68.73
2023-01-06T11:19:02.197Z,68.82
2023-01-06T11:21:44.687Z,67.00
2023-01-06T11:24:21.427Z,66.02
2023-01-06T11:27:16.685Z,65.63
2023-01-06T11:29:43.299Z,64.95
2023-01-06T11:32:15.462Z,65.44
2023-01-06T11:34:53.640Z,65.72
2023-01-06T11:37:56.377Z,66.52
2023-01-06T11:40:34.329Z,67.12
2023-01-06T11:43:06.254Z,66.02
2023-01-06T11:45:42.564Z,66.50
2023-01-06T11:48:20.041Z,65.53
2023-01-06T11:50:58.423Z,66.32
2023-01-06T11:53:25.897Z,66.58
2023-01-06T11:55:56.938Z,65.46
2023-01-06T11:58:34.676Z,66.56
2023-01-06T12:01:11.327Z,64.84
2023-01-06T12:03:42.268Z,64.09
2023-01-06T12:06:21.335Z,64.16
2023-01-06T12:09:08.660Z,65.43
2023-01-06T12:11:56.502Z,64.01
2023-01-06T12:14:29.239Z,63.95
2023-01-06T12:17:24.533Z,63.83
2023-01-06T12:19:58.031Z,64.74
2023-01-06T12:22:30.378Z,64.07
2023-01-06T12:25:02.003Z,63.38
2023-01-06T12:27:52.865Z,63.21
2023-01-06T12:30:46.897Z,63.55
2023-01-06T12:33:22.793Z,64.06
2023-01-06T12:35:53.768Z,65.24
2023-01-06T12:38:48.118Z,65.07
2023-01-06T12:41:42.523Z,64.48
2023-01-06T12:44:21.341Z,64.85
2023-01-06T12:47:04.804Z,64.77
2023-01-06T12:49:53.507Z,64.47
2023-01-06T12:52:42.897Z,65.59
2023-01-06T12:55:22.294Z,65.69
2023-01-06T12:57:57.270Z,65.10
2023-01-06T13:00:45.383Z,65.84
2023-01-06T13:03:30.121Z,66.69
2023-01-06T13:06:21.461Z,66.39
2023-01-06T13:09:13.254Z,66.07
2023-01-06T13:12:06.394Z,66.57
2023-01-06T13:14:44.267Z,66.06
2023-01-06T13:17:28.233Z,65.55
2023-01-06T13:20:02.135Z,65.82
2023-01-06T13:23:02.332Z,66.47
2023-01-06T13:25:42.996Z,66.59
2023-01-06T13:28:34.727Z,66.73
2023-01-06T13:31:33.161Z,66.95
2023-01-06T13:34:26.081Z,67.06
2023-01-06T13:37:08.079Z,67.31
2023-01-06T13:39:41.974Z,66.37
2023-01-06T13:42:15.123Z,66.46
2023-01-06T13:44:43.580Z,66.44
2023-01-06T13:47:21.596Z,67.07
2023-01-06T13:49:49.538Z,67.85
2023-01-06T13:52:22.100Z,67.79
2023-01-06T13:54:50.427Z,67.59
2023-01-06T13:57:19.788Z,68.14
2023-01-06T13:59:53.304Z,68.39
2023-01-06T14:02:37.344Z,67.65
2023-01-06T14:05:29.811Z,67.64
2023-01-06T14:08:00.552Z,67.24
2023-01-06T14:10:44.211Z,66.82
2023-01-06T14:13:26.783Z,66.84
2023-01-06T14:15:57.696Z,67.79
2023-01-06T14:19:03.742Z,68.37
2023-01-06T14:21:31.075Z,68.66
2023-01-06T14:24:07.781Z,68.60
2023-01-06T14:26:43.557Z,68.69
2023-01-06T14:29:48.299Z,67.71
2023-01-06T14:32:15.200Z,67.57
2023-01-06T14:35:03.415Z,67.29
2023-01-06T14:37:52.606Z,67.09
2023-01-06T14:40:26.162Z,67.58
2023-01-06T14:42:56.468Z,68.20
2023-01-06T14:45:27.527Z,67.13
2023-01-06T14:48:14.575Z,66.66
2023-01-06T14:50:55.168Z,67.35
2023-01-06T14:53:35.141Z,67.64
2023-01-06T14:56:02.901Z,68.18
2023-01-06T14:58:38.105Z,68.57
2023-01-06T15:01:24.147Z,68.98
2023-01-06T15:03:57.295Z,69.36
2023-01-06T15:06:26.509Z,69.90
2023-01-06T15:08:54.884Z,70.33
2023-01-06T15:11:27.938Z,70.73
2023-01-06T15:16:42.174Z,71.30
2023-01-06T15:19:18.407Z,71.39
2023-01-06T15:21:47.358Z,71.66
2023-01-06T15:24:31.685Z,72.02
2023-01-06T15:27:12.901Z,72.87
2023-01-06T15:29:48.268Z,73.50
2023-01-06T15:32:15.469Z,73.61
2023-01-06T15:34:47.465Z,74.26
2023-01-06T15:37:24.794Z,74.09
2023-01-06T15:39:52.924Z,74.15
2023-01-06T15:42:25.046Z,74.04
2023-01-06T15:45:03.082Z,74.39
2023-01-06T15:47:41.817Z,75.61
2023-01-06T15:50:23.426Z,75.07
2023-01-06T15:53:00.326Z,75.11
2023-01-06T15:55:32.060Z,75.45
2023-01-06T15:58:24.154Z,76.38
2023-01-06T16:01:02.402Z,76.93
2023-01-06T16:03:31.750Z,76.93
2023-01-06T16:06:11.251Z,77.38
2023-01-06T16:08:40.234Z,78.70
2023-01-06T16:11:15.880Z,79.76
2023-01-06T16:13:48.514Z,79.53
2023-01-06T16:16:15.148Z,79.81
2023-01-06T16:18:43.459Z,80.52
2023-01-06T16:21:17.128Z,80.88
2023-01-06T16:23:54.730Z,81.22
2023-01-06T16:26:24.746Z,81.31
2023-01-06T16:28:57.493Z,81.46
2023-01-06T16:31:37.810Z,80.99
2023-01-06T16:34:24.785Z,81.14
2023-01-06T16:36:55.879Z,81.06
2023-01-06T16:39:23.356Z,81.11
2023-01-06T16:41:59.540Z,81.33
2023-01-06T16:44:30.870Z,81.67
2023-01-06T16:46:59.364Z,82.01
2023-01-06T16:49:25.855Z,82.37
2023-01-06T16:51:56.403Z,82.63
2023-01-06T16:54:23.043Z,82.95
2023-01-06T16:56:51.527Z,83.12
2023-01-06T16:59:21.701Z,83.32
2023-01-06T17:01:48.602Z,82.96
2023-01-06T17:04:15.350Z,82.77
2023-01-06T17:06:44.989Z,82.62
2023-01-06T17:09:19.311Z,82.81
2023-01-06T17:11:47.809Z,83.36
2023-01-06T17:14:20.581Z,83.25
2023-01-06T17:16:48.302Z,82.79
2023-01-06T17:19:19.961Z,83.08
2023-01-06T17:21:48.372Z,83.50
2023-01-06T17:24:24.273Z,83.83
2023-01-06T17:26:59.831Z,83.93
2023-01-06T17:29:32.395Z,83.95
2023-01-06T17:32:01.994Z,83.62
2023-01-06T17:34:35.240Z,83.60
2023-01-06T17:37:11.528Z,83.87
2023-01-06T17:39:43.949Z,84.31
2023-01-06T17:42:10.410Z,84.58
2023-01-06T17:44:56.855Z,84.89
2023-01-06T17:47:23.317Z,84.95
2023-01-06T17:49:54.359Z,84.85
2023-01-06T17:52:23.660Z,84.76
2023-01-06T17:55:14.650Z,84.83
2023-01-06T17:57:44.559Z,84.89
2023-01-06T18:00:23.939Z,84.52
2023-01-06T18:03:18.516Z,84.44
2023-01-06T18:05:45.479Z,84.82
2023-01-06T18:08:14.780Z,85.33
2023-01-06T18:10:43.621Z,85.12
2023-01-06T18:13:16.300Z,85.13
2023-01-06T18:15:44.710Z,85.44
2023-01-06T18:18:19.889Z,85.59
2023-01-06T18:20:59.888Z,85.65
2023-01-06T18:23:27.178Z,85.88
2023-01-06T18:25:59.296Z,85.97
2023-01-06T18:28:26.571Z,85.82
2023-01-06T18:30:58.751Z,85.68
2023-01-06T18:33:25.747Z,86.38
2023-01-06T18:35:56.551Z,85.84
2023-01-06T18:38:29.309Z,85.91
2023-01-06T18:40:55.986Z,85.84
2023-01-06T18:43:27.329Z,86.09
2023-01-06T18:45:59.311Z,86.39
2023-01-06T18:48:32.105Z,86.96
2023-01-06T18:51:01.164Z,87.45
2023-01-06T18:53:42.953Z,87.88
2023-01-06T18:56:20.493Z,88.04
2023-01-06T18:58:56.787Z,88.15
2023-01-06T19:01:29.314Z,88.50
2023-01-06T19:04:13.867Z,89.02
2023-01-06T19:06:54.531Z,89.19
2023-01-06T19:09:27.999Z,89.20
2023-01-06T19:11:59.863Z,88.63
2023-01-06T19:14:29.062Z,88.67
2023-01-06T19:16:56.806Z,88.93
2023-01-06T19:19:37.706Z,89.14
2023-01-06T19:22:23.995Z,89.62
2023-01-06T19:25:29.737Z,89.45
2023-01-06T19:27:57.430Z,89.21
2023-01-06T19:30:45.772Z,89.43
2023-01-06T19:33:35.175Z,89.87
2023-01-06T19:36:04.934Z,90.19
2023-01-06T19:38:38.770Z,90.57
2023-01-06T19:41:32.316Z,90.66
2023-01-06T19:44:11.495Z,90.54
2023-01-06T19:46:41.239Z,90.33
2023-01-06T19:49:10.796Z,90.20
2023-01-06T19:51:37.387Z,90.63
2023-01-06T19:54:10.012Z,90.75
2023-01-06T19:56:39.318Z,90.79
2023-01-06T19:59:17.410Z,90.71
2023-01-06T20:01:46.124Z,91.01
2023-01-06T20:04:23.143Z,91.28
2023-01-06T20:06:50.122Z,91.50
2023-01-06T20:09:16.726Z,91.35
2023-01-06T20:11:43.331Z,91.23
2023-01-06T20:14:10.431Z,91.33
2023-01-06T20:16:37.053Z,91.06
2023-01-06T20:19:04.075Z,90.87
2023-01-06T20:21:30.994Z,91.09
2023-01-06T20:23:57.996Z,91.00
2023-01-06T20:26:25.055Z,90.74
2023-01-06T20:28:51.646Z,91.92
2023-01-06T20:31:18.282Z,91.82
2023-01-06T20:33:45.569Z,91.23
2023-01-06T20:36:16.326Z,91.62
2023-01-06T20:38:46.380Z,92.10
2023-01-06T20:41:13.076Z,92.18
2023-01-06T20:43:40.033Z,92.80
2023-01-06T20:46:06.807Z,93.04
2023-01-06T20:48:34.043Z,92.83
2023-01-06T20:51:01.454Z,92.80
2023-01-06T20:53:28.083Z,93.24
2023-01-06T20:55:57.745Z,93.05
2023-01-06T20:58:24.349Z,93.15
2023-01-06T21:00:51.062Z,93.26
2023-01-06T21:03:17.664Z,93.65
2023-01-06T21:05:44.199Z,93.74
2023-01-06T21:08:13.469Z,93.70
2023-01-06T21:10:40.040Z,93.89
2023-01-06T21:13:07.242Z,94.59
2023-01-06T21:15:33.890Z,95.13
2023-01-06T21:18:00.409Z,95.22
2023-01-06T21:20:27.053Z,95.15
2023-01-06T21:22:53.689Z,94.85
2023-01-06T21:25:20.272Z,94.61
2023-01-06T21:27:46.828Z,94.43
2023-01-06T21:30:17.269Z,95.14
2023-01-06T21:32:43.834Z,95.46
2023-01-06T21:35:10.644Z,95.66
2023-01-06T21:37:37.284Z,95.68
2023-01-06T21:40:07.935Z,96.14
2023-01-06T21:42:53.475Z,96.67
2023-01-06T21:45:20.041Z,97.07
2023-01-06T21:47:46.480Z,97.02
2023-01-06T21:50:13.126Z,96.52
2023-01-06T21:52:39.636Z,96.12
2023-01-06T21:55:06.839Z,96.59
2023-01-06T21:57:33.541Z,96.10
2023-01-06T22:00:00.136Z,95.92
2023-01-06T22:02:27.029Z,95.84
2023-01-06T22:04:53.753Z,95.88
2023-01-06T22:07:20.939Z,96.05
2023-01-06T22:09:48.042Z,96.11
2023-01-06T22:12:17.441Z,96.96
2023-01-06T22:14:45.097Z,97.05
2023-01-06T22:17:12.378Z,97.05
2023-01-06T22:19:39.887Z,97.10
2023-01-06T22:22:06.903Z,96.63
2023-01-06T22:24:35.136Z,96.74
2023-01-06T22:27:01.614Z,96.49
2023-01-06T22:29:28.240Z,96.51
2023-01-06T22:32:01.809Z,96.27
2023-01-06T22:34:29.791Z,96.33
2023-01-06T22:37:00.572Z,95.63
2023-01-06T22:39:28.360Z,95.54
2023-01-06T22:41:59.627Z,95.17
2023-01-06T22:44:26.310Z,95.35
2023-01-06T22:46:53.047Z,95.49
2023-01-06T22:49:20.621Z,95.61
2023-01-06T22:51:48.274Z,95.77
2023-01-06T22:54:14.959Z,95.98
2023-01-06T22:56:42.049Z,95.88
2023-01-06T22:59:14.835Z,96.18
2023-01-06T23:01:41.706Z,96.42
2023-01-06T23:04:08.857Z,96.35
2023-01-06T23:06:35.331Z,96.31
2023-01-06T23:09:02.113Z,96.87
2023-01-06T23:11:30.798Z,96.41
2023-01-06T23:13:58.107Z,96.35
2023-01-06T23:16:26.074Z,96.22
2023-01-06T23:18:53.236Z,96.16
2023-01-06T23:21:22.458Z,96.66
2023-01-06T23:23:50.579Z,96.62
2023-01-06T23:26:24.317Z,96.71
2023-01-06T23:28:52.360Z,96.96
2023-01-06T23:31:21.891Z,96.86
2023-01-06T23:33:51.588Z,96.79
2023-01-06T23:36:19.331Z,96.38
2023-01-06T23:38:46.600Z,96.26
2023-01-06T23:41:21.652Z,96.26
2023-01-06T23:43:49.464Z,96.12
2023-01-06T23:46:28.566Z,95.88
2023-01-06T23:48:56.281Z,95.98
2023-01-06T23:51:24.179Z,96.05
2023-01-06T23:53:52.945Z,95.55
2023-01-06T23:56:24.467Z,95.32
2023-01-06T23:58:53.742Z,95.24
